createdAt,value
2018-09-02T00:03:01.052Z,5.36
2018-09-02T00:08:56.095Z,5.17
2018-09-02T00:14:51.096Z,7.54
2018-09-02T00:20:46.082Z,5.14
2018-09-02T00:26:41.079Z,5.87
2018-09-02T00:32:36.086Z,6.21
2018-09-02T00:38:31.134Z,5.74
2018-09-02T00:44:26.068Z,6.42
2018-09-02T00:50:21.088Z,6.7
2018-09-02T00:56:16.075Z,6.71
2018-09-02T01:02:11.073Z,6.3
2018-09-02T01:08:06.075Z,6.58
2018-09-02T01:14:01.055Z,8.29
2018-09-02T01:19:56.049Z,6.16
2018-09-02T01:25:51.091Z,8.67
2018-09-02T01:31:46.104Z,6.06
2018-09-02T01:37:41.074Z,8.55
2018-09-02T01:43:36.069Z,5.91
2018-09-02T01:49:31.082Z,8.48
2018-09-02T01:55:26.080Z,6.73
2018-09-02T02:01:21.086Z,6.45
2018-09-02T02:07:16.080Z,7.02
2018-09-02T02:13:11.094Z,4.54
2018-09-02T02:19:06.088Z,7.95
2018-09-02T02:25:01.104Z,7.95
2018-09-02T02:30:56.083Z,7.07
2018-09-02T02:36:51.074Z,9.17
2018-09-02T02:42:46.106Z,5.29
2018-09-02T02:48:41.070Z,8.61
2018-09-02T02:54:36.088Z,8.16
2018-09-02T03:00:31.105Z,6.64
2018-09-02T03:06:26.118Z,6.94
2018-09-02T03:12:21.094Z,9.23
2018-09-02T03:18:16.124Z,6.89
2018-09-02T03:24:11.096Z,7.5
2018-09-02T03:30:06.132Z,8.16
2018-09-02T03:36:01.092Z,5.81
2018-09-02T03:41:56.086Z,7.86
2018-09-02T03:47:51.086Z,7.36
2018-09-02T03:53:46.219Z,9.06
2018-09-02T03:59:41.117Z,9.13
2018-09-02T04:05:36.127Z,9.68
2018-09-02T04:11:31.149Z,9.09
2018-09-02T04:17:26.113Z,6.24
2018-09-02T04:23:21.112Z,9.52
2018-09-02T04:29:16.140Z,9.63
2018-09-02T04:35:11.099Z,8.03
2018-09-02T04:41:06.129Z,7.39
2018-09-02T04:47:01.100Z,7.34
2018-09-02T04:52:56.122Z,8.39
2018-09-02T04:58:51.152Z,6.97
2018-09-02T05:04:46.125Z,9.93
2018-09-02T05:10:41.105Z,7.7
2018-09-02T05:16:36.155Z,8.14
2018-09-02T05:22:31.129Z,7.07
2018-09-02T05:28:26.121Z,8.22
2018-09-02T05:34:21.112Z,8.51
2018-09-02T05:40:16.118Z,10.28
2018-09-02T05:46:11.115Z,10.52
2018-09-02T05:52:06.113Z,8.25
2018-09-02T05:58:01.156Z,8.07
2018-09-02T06:03:56.125Z,7.08
2018-09-02T06:09:51.119Z,7.72
2018-09-02T06:15:46.155Z,8.37
2018-09-02T06:21:41.140Z,6.96
2018-09-02T06:27:36.117Z,6.56
2018-09-02T06:33:31.139Z,10.38
2018-09-02T06:39:26.254Z,7.93
2018-09-02T06:45:21.137Z,6.79
2018-09-02T06:51:16.146Z,11.82
2018-09-02T06:57:11.139Z,6.4
2018-09-02T07:03:06.122Z,11
2018-09-02T07:09:01.119Z,7.2
2018-09-02T07:14:56.160Z,10.58
2018-09-02T07:20:51.118Z,6.75
2018-09-02T07:26:46.120Z,6.51
2018-09-02T07:32:41.126Z,7.9
2018-09-02T07:38:36.114Z,5.19
2018-09-02T07:44:31.142Z,6.72
2018-09-02T07:50:26.178Z,8.01
2018-09-02T07:56:21.187Z,4.23
2018-09-02T08:02:16.137Z,3.57
2018-09-02T08:08:11.124Z,3.72
2018-09-02T08:14:06.157Z,5.01
2018-09-02T08:20:01.265Z,5.08
2018-09-02T08:25:56.125Z,6.69
2018-09-02T08:31:51.205Z,4.57
2018-09-02T08:37:46.139Z,7.98
2018-09-02T08:43:41.146Z,5.67
2018-09-02T08:49:36.134Z,5.74
2018-09-02T08:55:31.158Z,7.36
2018-09-02T09:01:26.208Z,6.63
2018-09-02T09:07:21.218Z,8.36
2018-09-02T09:13:16.157Z,5.27
2018-09-02T09:19:11.162Z,4.38
2018-09-02T09:25:06.181Z,3.98
2018-09-02T09:31:01.156Z,4.55
2018-09-02T09:36:56.164Z,7.02
2018-09-02T09:42:51.167Z,6.62
2018-09-02T09:48:46.192Z,8.8
2018-09-02T09:54:41.190Z,5.36
2018-09-02T10:00:36.250Z,7.89
2018-09-02T10:06:31.208Z,5.29
2018-09-02T10:12:26.189Z,4.91
2018-09-02T10:18:21.294Z,5.61
2018-09-02T10:24:16.166Z,4.23
2018-09-02T10:30:11.208Z,6.43
2018-09-02T10:36:06.190Z,5.94
2018-09-02T10:42:01.214Z,6.26
2018-09-02T10:47:56.232Z,3.81
2018-09-02T10:53:51.256Z,5.28
2018-09-02T10:59:46.297Z,6.3
2018-09-02T11:05:41.203Z,7.22
2018-09-02T11:11:36.225Z,7.66
2018-09-02T11:17:31.215Z,5.83
2018-09-02T11:23:26.222Z,6.17
2018-09-02T11:29:21.205Z,6.77
2018-09-02T11:35:16.209Z,5.38
2018-09-02T11:41:11.216Z,11.21
2018-09-02T11:47:06.245Z,5.67
2018-09-02T11:53:01.232Z,4.95
2018-09-02T11:58:56.260Z,6.08
2018-09-02T12:04:51.289Z,7.08
2018-09-02T12:10:46.221Z,11.1
2018-09-02T12:16:41.235Z,5.85
2018-09-02T12:22:36.268Z,5.76
2018-09-02T12:28:31.233Z,5.7
2018-09-02T12:34:26.233Z,5.51
2018-09-02T12:40:21.317Z,8.38
2018-09-02T12:46:16.301Z,4.27
2018-09-02T12:52:11.245Z,4.2
2018-09-02T12:58:06.240Z,5.63
2018-09-02T13:04:01.251Z,6.02
2018-09-02T13:09:56.241Z,7.5
2018-09-02T13:15:51.252Z,5.17
2018-09-02T13:21:46.285Z,3.71
2018-09-02T13:27:41.262Z,5.59
2018-09-02T13:33:36.306Z,4.83
2018-09-02T13:39:31.257Z,4.5
2018-09-02T13:45:26.300Z,7.29
2018-09-02T13:51:21.329Z,6.36
2018-09-02T13:57:16.299Z,4.56
2018-09-02T14:03:11.258Z,4.52
2018-09-02T14:09:06.270Z,4.9
2018-09-02T14:15:01.273Z,6.51
2018-09-02T14:20:56.269Z,5.79
2018-09-02T14:26:51.292Z,4.02
2018-09-02T14:32:46.375Z,4.34
2018-09-02T14:38:41.282Z,3.14
2018-09-02T14:44:36.320Z,3.14
2018-09-02T14:50:31.323Z,2.54
2018-09-02T14:56:26.284Z,2.85
2018-09-02T15:02:21.338Z,3.7
2018-09-02T15:08:16.350Z,4.11
2018-09-02T15:14:11.304Z,4.7
2018-09-02T15:20:06.300Z,4.06
2018-09-02T15:26:01.308Z,5.83
2018-09-02T15:31:56.294Z,3.8
2018-09-02T15:37:51.372Z,3.68
2018-09-02T15:43:46.321Z,3.27
2018-09-02T15:49:41.311Z,3.91
2018-09-02T15:55:36.309Z,3.76
2018-09-02T16:01:31.298Z,4
2018-09-02T16:07:26.322Z,3.57
2018-09-02T16:13:21.310Z,4.59
2018-09-02T16:19:16.326Z,4.29
2018-09-02T16:25:11.329Z,3.59
2018-09-02T16:31:06.423Z,3.37
2018-09-02T16:37:01.340Z,3.05
2018-09-02T16:42:56.348Z,3.47
2018-09-02T16:48:51.342Z,3.95
2018-09-02T16:54:46.331Z,3.36
2018-09-02T17:00:41.321Z,3.63
2018-09-02T17:06:36.377Z,4.22
2018-09-02T17:12:31.499Z,4.32
2018-09-02T17:18:26.331Z,2.35
2018-09-02T17:24:21.344Z,3.93
2018-09-02T17:30:16.369Z,3.08
2018-09-02T17:36:11.339Z,3.86
2018-09-02T17:42:06.355Z,2.97
2018-09-02T17:48:01.347Z,3.98
2018-09-02T17:53:56.362Z,3.81
2018-09-02T17:59:51.352Z,3.93
2018-09-02T18:05:46.407Z,2.78
2018-09-02T18:11:41.342Z,3.41
2018-09-02T18:17:36.370Z,2.28
2018-09-02T18:23:31.361Z,3.76
2018-09-02T18:29:26.389Z,3.76
2018-09-02T18:35:21.391Z,4.34
2018-09-02T18:41:16.373Z,3.13
2018-09-02T18:47:11.377Z,2.6
2018-09-02T18:53:06.383Z,3.94
2018-09-02T18:59:01.381Z,4.02
2018-09-02T19:04:56.394Z,4.03
2018-09-02T19:10:51.416Z,2.68
2018-09-02T19:16:46.369Z,5.83
2018-09-02T19:22:41.378Z,4.4
2018-09-02T19:28:36.389Z,3.32
2018-09-02T19:34:31.426Z,4.9
2018-09-02T19:40:26.425Z,4.88
2018-09-02T19:46:21.403Z,2.65
2018-09-02T19:52:16.413Z,4.99
2018-09-02T19:58:11.407Z,3.61
2018-09-02T20:04:06.385Z,6.74
2018-09-02T20:10:01.444Z,4.92
2018-09-02T20:15:56.394Z,5.77
2018-09-02T20:21:51.432Z,3.24
2018-09-02T20:27:46.414Z,5.81
2018-09-02T20:33:41.433Z,5.03
2018-09-02T20:39:36.416Z,3.83
2018-09-02T20:45:31.430Z,3.6
2018-09-02T20:51:26.400Z,3.22
2018-09-02T20:57:21.391Z,5.59
2018-09-02T21:03:16.398Z,4.2
2018-09-02T21:09:11.436Z,3.51
2018-09-02T21:15:06.412Z,3.63
2018-09-02T21:21:01.429Z,3.99
2018-09-02T21:26:56.453Z,5.9
2018-09-02T21:32:51.424Z,5.25
2018-09-02T21:38:46.423Z,3.74
2018-09-02T21:44:41.424Z,3.04
2018-09-02T21:50:36.418Z,4.03
2018-09-02T21:56:31.433Z,4.94
2018-09-02T22:02:26.456Z,4.26
2018-09-02T22:08:21.430Z,3.08
2018-09-02T22:14:16.468Z,4.25
2018-09-02T22:20:11.432Z,3.12
2018-09-02T22:26:06.414Z,2.66
2018-09-02T22:32:01.454Z,3.71
2018-09-02T22:37:56.412Z,3.7
2018-09-02T22:43:51.415Z,3.27
2018-09-02T22:49:46.410Z,4.14
2018-09-02T22:55:41.426Z,3.67
2018-09-02T23:01:36.420Z,4.33
2018-09-02T23:07:31.436Z,4.08
2018-09-02T23:13:26.441Z,4.29
2018-09-02T23:19:21.493Z,5.03
2018-09-02T23:25:16.425Z,2.86
2018-09-02T23:31:11.466Z,4.84
2018-09-02T23:37:06.408Z,3.12
2018-09-02T23:43:01.422Z,5.85
2018-09-02T23:48:56.491Z,3.3
2018-09-02T23:54:51.435Z,2.58
